sensor_id;sensor_type;location;lat;lon;timestamp;pressure;altitude;pressure_sealevel;temperature;humidity
67397;BME280;57728;50.448;18.824;2022-12-18T00:01:19;99265.09;;;-2.62;69.15
67397;BME280;57728;50.448;18.824;2022-12-18T00:03:26;99263.31;;;-2.61;69.34
67397;BME280;57728;50.448;18.824;2022-12-18T00:05:27;99272.03;;;-2.59;69.38
67397;BME280;57728;50.448;18.824;2022-12-18T00:07:28;99281.72;;;-2.58;69.38
67397;BME280;57728;50.448;18.824;2022-12-18T00:09:33;99277.47;;;-2.61;69.40
67397;BME280;57728;50.448;18.824;2022-12-18T00:11:34;99292.63;;;-2.61;69.31
67397;BME280;57728;50.448;18.824;2022-12-18T00:13:35;99276.25;;;-2.68;69.21
67397;BME280;57728;50.448;18.824;2022-12-18T00:15:39;99287.53;;;-2.64;69.33
67397;BME280;57728;50.448;18.824;2022-12-18T00:17:40;99275.97;;;-2.76;69.14
67397;BME280;57728;50.448;18.824;2022-12-18T00:19:41;99273.66;;;-2.81;69.41
67397;BME280;57728;50.448;18.824;2022-12-18T00:21:44;99283.25;;;-2.78;69.39
67397;BME280;57728;50.448;18.824;2022-12-18T00:23:46;99283.53;;;-2.70;69.32
67397;BME280;57728;50.448;18.824;2022-12-18T00:25:51;99295.97;;;-2.70;69.45
67397;BME280;57728;50.448;18.824;2022-12-18T00:27:54;99292.25;;;-2.68;69.58
67397;BME280;57728;50.448;18.824;2022-12-18T00:29:55;99297.34;;;-2.65;69.28
67397;BME280;57728;50.448;18.824;2022-12-18T00:31:56;99292.13;;;-2.66;69.48
67397;BME280;57728;50.448;18.824;2022-12-18T00:33:58;99309.06;;;-2.67;69.25
67397;BME280;57728;50.448;18.824;2022-12-18T00:38:10;99310.28;;;-2.71;69.55
67397;BME280;57728;50.448;18.824;2022-12-18T00:40:13;99315.00;;;-2.75;69.39
67397;BME280;57728;50.448;18.824;2022-12-18T00:42:16;99302.03;;;-2.80;69.48
67397;BME280;57728;50.448;18.824;2022-12-18T00:44:36;99287.78;;;-2.91;69.76
67397;BME280;57728;50.448;18.824;2022-12-18T00:46:38;99334.06;;;-2.68;69.54
67397;BME280;57728;50.448;18.824;2022-12-18T00:48:39;99313.41;;;-2.78;69.34
67397;BME280;57728;50.448;18.824;2022-12-18T00:50:41;99323.72;;;-2.73;69.59
67397;BME280;57728;50.448;18.824;2022-12-18T00:52:43;99333.53;;;-2.73;69.58
67397;BME280;57728;50.448;18.824;2022-12-18T00:54:44;99336.22;;;-2.73;69.61
67397;BME280;57728;50.448;18.824;2022-12-18T00:56:46;99336.22;;;-2.73;69.60
67397;BME280;57728;50.448;18.824;2022-12-18T00:58:49;99334.50;;;-2.74;69.47
67397;BME280;57728;50.448;18.824;2022-12-18T01:00:50;99341.78;;;-2.77;69.77
67397;BME280;57728;50.448;18.824;2022-12-18T01:02:51;99347.34;;;-2.80;69.57
67397;BME280;57728;50.448;18.824;2022-12-18T01:04:53;99352.03;;;-2.83;69.67
67397;BME280;57728;50.448;18.824;2022-12-18T01:06:57;99361.72;;;-2.82;69.84
67397;BME280;57728;50.448;18.824;2022-12-18T01:08:58;99354.94;;;-2.86;69.78
67397;BME280;57728;50.448;18.824;2022-12-18T01:11:06;99360.66;;;-2.80;70.20
67397;BME280;57728;50.448;18.824;2022-12-18T01:13:12;99357.78;;;-2.77;69.85
67397;BME280;57728;50.448;18.824;2022-12-18T01:15:15;99353.63;;;-2.81;69.75
67397;BME280;57728;50.448;18.824;2022-12-18T01:17:18;99349.88;;;-2.78;69.75
67397;BME280;57728;50.448;18.824;2022-12-18T01:19:19;99356.06;;;-2.78;69.74
67397;BME280;57728;50.448;18.824;2022-12-18T01:21:22;99352.66;;;-2.80;69.86
67397;BME280;57728;50.448;18.824;2022-12-18T01:23:26;99352.03;;;-2.83;69.88
67397;BME280;57728;50.448;18.824;2022-12-18T01:25:27;99350.22;;;-2.83;69.83
67397;BME280;57728;50.448;18.824;2022-12-18T01:27:33;99345.34;;;-2.89;69.91
67397;BME280;57728;50.448;18.824;2022-12-18T01:29:35;99355.34;;;-2.80;69.92
67397;BME280;57728;50.448;18.824;2022-12-18T01:31:39;99334.66;;;-2.89;69.97
67397;BME280;57728;50.448;18.824;2022-12-18T01:33:41;99355.09;;;-2.77;69.90
67397;BME280;57728;50.448;18.824;2022-12-18T01:35:43;99357.78;;;-2.77;69.79
67397;BME280;57728;50.448;18.824;2022-12-18T01:37:44;99356.06;;;-2.78;69.79
67397;BME280;57728;50.448;18.824;2022-12-18T01:39:45;99360.66;;;-2.80;69.83
67397;BME280;57728;50.448;18.824;2022-12-18T01:41:48;99364.94;;;-2.77;69.96
67397;BME280;57728;50.448;18.824;2022-12-18T01:44:46;99370.88;;;-2.73;69.93
67397;BME280;57728;50.448;18.824;2022-12-18T01:47:00;99361.28;;;-2.76;69.76
67397;BME280;57728;50.448;18.824;2022-12-18T01:49:01;99362.34;;;-2.79;69.48
67397;BME280;57728;50.448;18.824;2022-12-18T01:51:05;99367.13;;;-2.71;69.95
67397;BME280;57728;50.448;18.824;2022-12-18T01:53:21;99369.69;;;-2.69;69.76
67397;BME280;57728;50.448;18.824;2022-12-18T01:55:28;99372.34;;;-2.69;69.57
67397;BME280;57728;50.448;18.824;2022-12-18T01:57:34;99377.91;;;-2.72;69.70
67397;BME280;57728;50.448;18.824;2022-12-18T01:59:41;99384.06;;;-2.72;69.35
67397;BME280;57728;50.448;18.824;2022-12-18T02:01:45;99391.47;;;-2.75;69.43
67397;BME280;57728;50.448;18.824;2022-12-18T02:03:46;99391.59;;;-2.77;69.53
67397;BME280;57728;50.448;18.824;2022-12-18T02:08:19;99400.75;;;-2.81;69.60
67397;BME280;57728;50.448;18.824;2022-12-18T02:15:44;99416.66;;;-2.80;69.53
67397;BME280;57728;50.448;18.824;2022-12-18T02:18:07;99406.63;;;-2.89;69.49
67397;BME280;57728;50.448;18.824;2022-12-18T02:20:33;99429.44;;;-2.85;69.74
67397;BME280;57728;50.448;18.824;2022-12-18T02:28:13;99424.34;;;-2.88;69.84
67397;BME280;57728;50.448;18.824;2022-12-18T02:30:19;99403.06;;;-3.01;69.78
67397;BME280;57728;50.448;18.824;2022-12-18T02:32:27;99420.91;;;-2.90;69.88
67397;BME280;57728;50.448;18.824;2022-12-18T02:34:37;99423.03;;;-2.82;69.75
67397;BME280;57728;50.448;18.824;2022-12-18T02:36:45;99425.59;;;-2.81;69.71
67397;BME280;57728;50.448;18.824;2022-12-18T02:38:54;99433.38;;;-2.78;69.88
67397;BME280;57728;50.448;18.824;2022-12-18T02:41:00;99434.31;;;-2.79;69.63
67397;BME280;57728;50.448;18.824;2022-12-18T02:43:29;99439.16;;;-2.84;69.48
67397;BME280;57728;50.448;18.824;2022-12-18T02:45:32;99434.78;;;-2.85;69.64
67397;BME280;57728;50.448;18.824;2022-12-18T02:47:39;99443.84;;;-2.87;69.38
67397;BME280;57728;50.448;18.824;2022-12-18T02:52:40;99455.50;;;-2.88;69.61
67397;BME280;57728;50.448;18.824;2022-12-18T02:54:55;99449.41;;;-2.90;69.63
67397;BME280;57728;50.448;18.824;2022-12-18T02:57:22;99455.78;;;-2.93;69.62
67397;BME280;57728;50.448;18.824;2022-12-18T02:59:42;99442.38;;;-3.04;69.62
67397;BME280;57728;50.448;18.824;2022-12-18T03:02:01;99467.75;;;-2.99;69.82
67397;BME280;57728;50.448;18.824;2022-12-18T03:04:42;99404.91;;;-3.27;69.72
67397;BME280;57728;50.448;18.824;2022-12-18T03:07:07;99473.50;;;-2.92;69.70
67397;BME280;57728;50.448;18.824;2022-12-18T03:09:21;99478.00;;;-2.92;69.67
67397;BME280;57728;50.448;18.824;2022-12-18T03:11:34;99476.16;;;-2.92;69.66
67397;BME280;57728;50.448;18.824;2022-12-18T03:14:03;99462.88;;;-3.05;69.55
67397;BME280;57728;50.448;18.824;2022-12-18T03:16:12;99476.72;;;-3.00;69.68
67397;BME280;57728;50.448;18.824;2022-12-18T03:18:29;99479.28;;;-2.98;69.81
67397;BME280;57728;50.448;18.824;2022-12-18T03:20:38;99467.31;;;-3.05;69.52
67397;BME280;57728;50.448;18.824;2022-12-18T03:22:45;99477.78;;;-3.02;69.67
67397;BME280;57728;50.448;18.824;2022-12-18T03:24:53;99451.06;;;-3.14;69.81
67397;BME280;57728;50.448;18.824;2022-12-18T03:27:06;99420.28;;;-3.31;69.73
67397;BME280;57728;50.448;18.824;2022-12-18T03:29:20;99480.75;;;-3.07;69.71
67397;BME280;57728;50.448;18.824;2022-12-18T03:31:31;99485.47;;;-3.11;69.69
67397;BME280;57728;50.448;18.824;2022-12-18T03:33:44;99465.97;;;-3.24;69.77
67397;BME280;57728;50.448;18.824;2022-12-18T03:35:49;99489.91;;;-3.11;69.78
67397;BME280;57728;50.448;18.824;2022-12-18T03:37:52;99492.28;;;-3.06;69.88
67397;BME280;57728;50.448;18.824;2022-12-18T03:39:55;99497.63;;;-3.06;69.80
67397;BME280;57728;50.448;18.824;2022-12-18T03:44:45;99495.06;;;-3.08;70.28
67397;BME280;57728;50.448;18.824;2022-12-18T03:49:57;99498.44;;;-2.93;70.03
67397;BME280;57728;50.448;18.824;2022-12-18T03:52:16;99510.69;;;-2.90;69.77
67397;BME280;57728;50.448;18.824;2022-12-18T03:54:23;99506.97;;;-2.88;69.82
67397;BME280;57728;50.448;18.824;2022-12-18T03:56:50;99509.63;;;-2.88;69.74
67397;BME280;57728;50.448;18.824;2022-12-18T03:59:02;99515.91;;;-2.89;69.40
67397;BME280;57728;50.448;18.824;2022-12-18T04:01:10;99512.53;;;-2.91;69.28
67397;BME280;57728;50.448;18.824;2022-12-18T04:03:18;99508.69;;;-3.00;69.52
67397;BME280;57728;50.448;18.824;2022-12-18T04:05:26;99506.88;;;-2.99;69.53
67397;BME280;57728;50.448;18.824;2022-12-18T04:07:30;99527.53;;;-2.90;69.72
67397;BME280;57728;50.448;18.824;2022-12-18T04:09:34;99498.03;;;-3.00;69.58
67397;BME280;57728;50.448;18.824;2022-12-18T04:11:41;99524.22;;;-2.81;69.71
67397;BME280;57728;50.448;18.824;2022-12-18T04:13:48;99522.28;;;-2.79;69.46
67397;BME280;57728;50.448;18.824;2022-12-18T04:15:55;99516.78;;;-2.75;69.31
67397;BME280;57728;50.448;18.824;2022-12-18T04:17:58;99516.78;;;-2.75;69.15
67397;BME280;57728;50.448;18.824;2022-12-18T04:20:07;99516.78;;;-2.75;69.10
67397;BME280;57728;50.448;18.824;2022-12-18T04:22:11;99524.00;;;-2.78;68.90
67397;BME280;57728;50.448;18.824;2022-12-18T04:24:18;99521.69;;;-2.82;68.98
67397;BME280;57728;50.448;18.824;2022-12-18T04:26:28;99532.56;;;-2.85;68.92
67397;BME280;57728;50.448;18.824;2022-12-18T04:28:43;99528.53;;;-2.91;68.77
67397;BME280;57728;50.448;18.824;2022-12-18T04:30:48;99535.53;;;-2.90;68.84
67397;BME280;57728;50.448;18.824;2022-12-18T04:32:49;99540.88;;;-2.90;68.95
67397;BME280;57728;50.448;18.824;2022-12-18T04:34:51;99539.91;;;-2.89;69.04
67397;BME280;57728;50.448;18.824;2022-12-18T04:36:53;99545.13;;;-2.87;69.29
67397;BME280;57728;50.448;18.824;2022-12-18T04:38:57;99544.28;;;-2.88;69.38
67397;BME280;57728;50.448;18.824;2022-12-18T04:40:58;99533.09;;;-2.93;69.29
67397;BME280;57728;50.448;18.824;2022-12-18T04:43:03;99539.56;;;-2.84;69.49
67397;BME280;57728;50.448;18.824;2022-12-18T04:45:06;99547.16;;;-2.78;69.32
67397;BME280;57728;50.448;18.824;2022-12-18T04:47:08;99556.66;;;-2.74;69.15
67397;BME280;57728;50.448;18.824;2022-12-18T04:49:10;99546.09;;;-2.75;69.14
67397;BME280;57728;50.448;18.824;2022-12-18T04:51:11;99547.78;;;-2.74;68.93
67397;BME280;57728;50.448;18.824;2022-12-18T04:53:13;99535.63;;;-2.79;68.86
67397;BME280;57728;50.448;18.824;2022-12-18T04:55:15;99549.38;;;-2.72;68.62
67397;BME280;57728;50.448;18.824;2022-12-18T04:57:17;99549.38;;;-2.72;68.72
67397;BME280;57728;50.448;18.824;2022-12-18T04:59:21;99564.53;;;-2.72;68.81
67397;BME280;57728;50.448;18.824;2022-12-18T05:01:23;99562.81;;;-2.73;68.55
67397;BME280;57728;50.448;18.824;2022-12-18T05:03:24;99569.88;;;-2.72;68.77
67397;BME280;57728;50.448;18.824;2022-12-18T05:05:26;99559.31;;;-2.74;68.50
67397;BME280;57728;50.448;18.824;2022-12-18T05:07:28;99571.38;;;-2.81;68.17
67397;BME280;57728;50.448;18.824;2022-12-18T05:09:29;99572.66;;;-2.87;68.36
67397;BME280;57728;50.448;18.824;2022-12-18T05:11:30;99574.78;;;-2.92;68.35
67397;BME280;57728;50.448;18.824;2022-12-18T05:13:33;99577.78;;;-2.97;68.35
67397;BME280;57728;50.448;18.824;2022-12-18T05:15:36;99583.41;;;-3.01;68.34
67397;BME280;57728;50.448;18.824;2022-12-18T05:17:37;99590.66;;;-3.03;68.79
67397;BME280;57728;50.448;18.824;2022-12-18T05:19:39;99597.59;;;-3.01;68.81
67397;BME280;57728;50.448;18.824;2022-12-18T05:21:40;99588.72;;;-3.01;68.75
67397;BME280;57728;50.448;18.824;2022-12-18T05:23:41;99591.31;;;-3.00;68.86
67397;BME280;57728;50.448;18.824;2022-12-18T05:25:49;99594.59;;;-2.96;68.85
67397;BME280;57728;50.448;18.824;2022-12-18T05:27:55;99591.63;;;-2.91;69.12
67397;BME280;57728;50.448;18.824;2022-12-18T05:29:56;99604.44;;;-2.84;69.12
67397;BME280;57728;50.448;18.824;2022-12-18T05:31:58;99599.53;;;-2.77;68.68
67397;BME280;57728;50.448;18.824;2022-12-18T05:33:59;99589.69;;;-2.77;68.49
67397;BME280;57728;50.448;18.824;2022-12-18T05:36:06;99599.72;;;-2.67;68.40
67397;BME280;57728;50.448;18.824;2022-12-18T05:38:10;99604.09;;;-2.66;68.19
67397;BME280;57728;50.448;18.824;2022-12-18T05:40:11;99612.84;;;-2.64;68.26
67397;BME280;57728;50.448;18.824;2022-12-18T05:42:13;99610.19;;;-2.64;67.80
67397;BME280;57728;50.448;18.824;2022-12-18T05:44:15;99612.97;;;-2.66;68.07
67397;BME280;57728;50.448;18.824;2022-12-18T05:46:17;99613.25;;;-2.70;67.84
67397;BME280;57728;50.448;18.824;2022-12-18T05:48:20;99617.22;;;-2.76;67.75
67397;BME280;57728;50.448;18.824;2022-12-18T05:50:23;99595.44;;;-2.96;67.94
67397;BME280;57728;50.448;18.824;2022-12-18T05:52:24;99619.34;;;-2.81;67.79
67397;BME280;57728;50.448;18.824;2022-12-18T05:54:27;99602.94;;;-2.88;67.77
67397;BME280;57728;50.448;18.824;2022-12-18T05:56:29;99613.38;;;-2.85;67.67
67397;BME280;57728;50.448;18.824;2022-12-18T05:58:31;99619.47;;;-2.83;67.54
67397;BME280;57728;50.448;18.824;2022-12-18T06:00:36;99592.28;;;-3.01;67.69
67397;BME280;57728;50.448;18.824;2022-12-18T06:02:47;99613.81;;;-2.91;67.57
67397;BME280;57728;50.448;18.824;2022-12-18T06:04:48;99634.81;;;-2.86;67.60
67397;BME280;57728;50.448;18.824;2022-12-18T06:06:49;99625.97;;;-2.87;67.67
67397;BME280;57728;50.448;18.824;2022-12-18T06:08:52;99629.38;;;-2.85;67.90
67397;BME280;57728;50.448;18.824;2022-12-18T06:10:54;99616.81;;;-2.83;67.92
67397;BME280;57728;50.448;18.824;2022-12-18T06:12:55;99627.03;;;-2.77;67.91
67397;BME280;57728;50.448;18.824;2022-12-18T06:14:57;99635.56;;;-2.71;67.52
67397;BME280;57728;50.448;18.824;2022-12-18T06:16:59;99630.31;;;-2.73;67.75
67397;BME280;57728;50.448;18.824;2022-12-18T06:19:02;99635.56;;;-2.71;67.62
67397;BME280;57728;50.448;18.824;2022-12-18T06:21:06;99631.41;;;-2.75;67.45
67397;BME280;57728;50.448;18.824;2022-12-18T06:23:07;99646.25;;;-2.71;67.35
67397;BME280;57728;50.448;18.824;2022-12-18T06:25:10;99627.03;;;-2.77;67.45
67397;BME280;57728;50.448;18.824;2022-12-18T06:27:13;99630.75;;;-2.79;67.52
67397;BME280;57728;50.448;18.824;2022-12-18T06:29:14;99643.97;;;-2.78;67.11
67397;BME280;57728;50.448;18.824;2022-12-18T06:31:15;99650.59;;;-2.83;67.38
67397;BME280;57728;50.448;18.824;2022-12-18T06:33:17;99629.03;;;-3.06;67.25
67397;BME280;57728;50.448;18.824;2022-12-18T06:35:18;99639.59;;;-3.04;67.42
67397;BME280;57728;50.448;18.824;2022-12-18T06:37:20;99656.69;;;-2.94;67.74
67397;BME280;57728;50.448;18.824;2022-12-18T06:39:22;99643.13;;;-3.04;67.78
67397;BME280;57728;50.448;18.824;2022-12-18T06:41:23;99652.50;;;-2.98;67.98
67397;BME280;57728;50.448;18.824;2022-12-18T06:43:24;99674.78;;;-2.86;68.44
67397;BME280;57728;50.448;18.824;2022-12-18T06:45:27;99662.13;;;-2.83;67.97
67397;BME280;57728;50.448;18.824;2022-12-18T06:47:28;99678.00;;;-2.81;67.95
67397;BME280;57728;50.448;18.824;2022-12-18T06:49:29;99674.34;;;-2.80;68.28
67397;BME280;57728;50.448;18.824;2022-12-18T06:51:31;99678.84;;;-2.81;67.96
67397;BME280;57728;50.448;18.824;2022-12-18T06:53:33;99678.84;;;-2.81;67.60
67397;BME280;57728;50.448;18.824;2022-12-18T06:55:34;99681.63;;;-2.82;67.66
67397;BME280;57728;50.448;18.824;2022-12-18T06:57:36;99664.56;;;-2.92;67.67
67397;BME280;57728;50.448;18.824;2022-12-18T06:59:38;99670.31;;;-2.86;67.75
67397;BME280;57728;50.448;18.824;2022-12-18T07:01:39;99681.31;;;-2.78;67.61
67397;BME280;57728;50.448;18.824;2022-12-18T07:03:41;99691.03;;;-2.77;67.38
67397;BME280;57728;50.448;18.824;2022-12-18T07:05:43;99684.84;;;-2.77;67.67
67397;BME280;57728;50.448;18.824;2022-12-18T07:07:44;99690.59;;;-2.70;67.70
67397;BME280;57728;50.448;18.824;2022-12-18T07:09:46;99678.84;;;-2.81;67.35
67397;BME280;57728;50.448;18.824;2022-12-18T07:11:47;99696.13;;;-2.73;67.27
67397;BME280;57728;50.448;18.824;2022-12-18T07:13:49;99710.53;;;-2.76;67.30
67397;BME280;57728;50.448;18.824;2022-12-18T07:15:51;99708.28;;;-2.82;67.62
67397;BME280;57728;50.448;18.824;2022-12-18T07:17:52;99704.66;;;-2.81;67.38
67397;BME280;57728;50.448;18.824;2022-12-18T07:19:56;99694.00;;;-2.94;67.31
67397;BME280;57728;50.448;18.824;2022-12-18T07:21:58;99716.38;;;-2.84;67.62
67397;BME280;57728;50.448;18.824;2022-12-18T07:23:59;99718.09;;;-2.83;67.75
67397;BME280;57728;50.448;18.824;2022-12-18T07:26:05;99712.56;;;-2.80;67.52
67397;BME280;57728;50.448;18.824;2022-12-18T07:28:11;99714.25;;;-2.79;67.71
67397;BME280;57728;50.448;18.824;2022-12-18T07:30:13;99718.97;;;-2.69;67.74
67397;BME280;57728;50.448;18.824;2022-12-18T07:32:14;99722.19;;;-2.64;67.62
67397;BME280;57728;50.448;18.824;2022-12-18T07:34:16;99729.63;;;-2.56;67.46
67397;BME280;57728;50.448;18.824;2022-12-18T07:36:18;99728.59;;;-2.54;67.37
67397;BME280;57728;50.448;18.824;2022-12-18T07:38:21;99722.91;;;-2.62;67.08
67397;BME280;57728;50.448;18.824;2022-12-18T07:40:23;99730.81;;;-2.48;67.30
67397;BME280;57728;50.448;18.824;2022-12-18T07:42:24;99736.59;;;-2.41;67.16
67397;BME280;57728;50.448;18.824;2022-12-18T07:44:34;99736.03;;;-2.33;67.04
67397;BME280;57728;50.448;18.824;2022-12-18T07:46:36;99739.03;;;-2.25;66.88
67397;BME280;57728;50.448;18.824;2022-12-18T07:48:37;99720.81;;;-2.31;66.71
67397;BME280;57728;50.448;18.824;2022-12-18T07:50:38;99704.78;;;-2.31;66.71
67397;BME280;57728;50.448;18.824;2022-12-18T07:52:41;99725.78;;;-2.14;66.54
67397;BME280;57728;50.448;18.824;2022-12-18T07:54:42;99740.41;;;-2.07;66.30
67397;BME280;57728;50.448;18.824;2022-12-18T07:56:43;99736.56;;;-2.02;66.35
67397;BME280;57728;50.448;18.824;2022-12-18T07:58:47;99729.22;;;-1.99;66.43
67397;BME280;57728;50.448;18.824;2022-12-18T08:00:48;99713.84;;;-2.08;66.06
67397;BME280;57728;50.448;18.824;2022-12-18T08:02:49;99733.25;;;-1.93;66.13
67397;BME280;57728;50.448;18.824;2022-12-18T08:04:51;99730.25;;;-1.88;66.00
67397;BME280;57728;50.448;18.824;2022-12-18T08:06:52;99725.34;;;-1.82;65.93
67397;BME280;57728;50.448;18.824;2022-12-18T08:08:56;99729.81;;;-1.69;65.83
67397;BME280;57728;50.448;18.824;2022-12-18T08:10:58;99732.66;;;-1.60;65.71
67397;BME280;57728;50.448;18.824;2022-12-18T08:13:00;99734.88;;;-1.53;65.40
67397;BME280;57728;50.448;18.824;2022-12-18T08:15:01;99726.47;;;-1.36;65.50
67397;BME280;57728;50.448;18.824;2022-12-18T08:17:03;99731.72;;;-1.10;65.99
67397;BME280;57728;50.448;18.824;2022-12-18T08:19:04;99727.31;;;-0.87;64.68
67397;BME280;57728;50.448;18.824;2022-12-18T08:21:15;99732.69;;;-0.76;63.97
67397;BME280;57728;50.448;18.824;2022-12-18T08:23:24;99746.22;;;-0.66;63.84
67397;BME280;57728;50.448;18.824;2022-12-18T08:25:25;99729.00;;;-0.50;64.70
67397;BME280;57728;50.448;18.824;2022-12-18T08:27:26;99752.19;;;-0.04;64.11
67397;BME280;57728;50.448;18.824;2022-12-18T08:29:28;99746.97;;;0.28;63.34
67397;BME280;57728;50.448;18.824;2022-12-18T08:31:31;99746.03;;;0.62;63.04
67397;BME280;57728;50.448;18.824;2022-12-18T08:33:34;99746.03;;;1.06;62.70
67397;BME280;57728;50.448;18.824;2022-12-18T08:35:39;99752.50;;;1.35;61.50
67397;BME280;57728;50.448;18.824;2022-12-18T08:37:40;99742.94;;;1.43;60.69
67397;BME280;57728;50.448;18.824;2022-12-18T08:39:41;99762.53;;;1.54;60.17
67397;BME280;57728;50.448;18.824;2022-12-18T08:41:43;99757.88;;;1.35;59.04
67397;BME280;57728;50.448;18.824;2022-12-18T08:44:04;99776.69;;;1.24;59.52
67397;BME280;57728;50.448;18.824;2022-12-18T08:46:26;99761.03;;;1.08;59.79
67397;BME280;57728;50.448;18.824;2022-12-18T08:48:29;99775.25;;;1.20;59.26
67397;BME280;57728;50.448;18.824;2022-12-18T08:50:30;99751.66;;;1.02;58.75
67397;BME280;57728;50.448;18.824;2022-12-18T08:52:32;99789.72;;;1.08;58.61
67397;BME280;57728;50.448;18.824;2022-12-18T08:54:34;99761.72;;;0.89;58.78
67397;BME280;57728;50.448;18.824;2022-12-18T08:56:35;99758.81;;;0.81;58.49
67397;BME280;57728;50.448;18.824;2022-12-18T08:58:36;99734.19;;;0.76;59.18
67397;BME280;57728;50.448;18.824;2022-12-18T09:00:38;99772.91;;;1.27;58.67
67397;BME280;57728;50.448;18.824;2022-12-18T09:02:40;99776.25;;;1.73;59.50
67397;BME280;57728;50.448;18.824;2022-12-18T09:04:47;99792.66;;;2.31;58.45
67397;BME280;57728;50.448;18.824;2022-12-18T09:06:49;99784.66;;;2.82;57.79
67397;BME280;57728;50.448;18.824;2022-12-18T09:08:50;99775.63;;;3.22;57.26
67397;BME280;57728;50.448;18.824;2022-12-18T09:10:52;99781.16;;;3.69;55.84
67397;BME280;57728;50.448;18.824;2022-12-18T09:12:54;99787.19;;;4.01;55.91
67397;BME280;57728;50.448;18.824;2022-12-18T09:14:57;99793.50;;;4.29;55.30
67397;BME280;57728;50.448;18.824;2022-12-18T09:16:58;99774.06;;;4.63;54.86
67397;BME280;57728;50.448;18.824;2022-12-18T09:19:01;99783.53;;;5.13;54.28
67397;BME280;57728;50.448;18.824;2022-12-18T09:21:12;99786.88;;;5.61;53.49
67397;BME280;57728;50.448;18.824;2022-12-18T09:23:19;99782.13;;;5.99;52.73
67397;BME280;57728;50.448;18.824;2022-12-18T09:25:22;99782.31;;;6.24;51.84
67397;BME280;57728;50.448;18.824;2022-12-18T09:27:23;99782.09;;;6.51;51.22
67397;BME280;57728;50.448;18.824;2022-12-18T09:29:24;99787.50;;;6.86;50.84
67397;BME280;57728;50.448;18.824;2022-12-18T09:31:26;99784.22;;;7.17;49.94
67397;BME280;57728;50.448;18.824;2022-12-18T09:33:27;99773.84;;;7.12;49.10
67397;BME280;57728;50.448;18.824;2022-12-18T09:35:29;99790.84;;;7.22;48.31
67397;BME280;57728;50.448;18.824;2022-12-18T09:37:31;99769.16;;;7.31;48.49
67397;BME280;57728;50.448;18.824;2022-12-18T09:39:32;99785.28;;;7.57;47.72
67397;BME280;57728;50.448;18.824;2022-12-18T09:41:52;99773.25;;;7.76;47.21
67397;BME280;57728;50.448;18.824;2022-12-18T09:44:03;99789.16;;;8.04;46.60
67397;BME280;57728;50.448;18.824;2022-12-18T09:46:24;99795.41;;;8.29;46.18
67397;BME280;57728;50.448;18.824;2022-12-18T09:48:44;99761.38;;;7.85;45.18
67397;BME280;57728;50.448;18.824;2022-12-18T09:50:54;99796.28;;;7.80;44.08
67397;BME280;57728;50.448;18.824;2022-12-18T09:53:17;99779.84;;;6.73;43.63
67397;BME280;57728;50.448;18.824;2022-12-18T09:55:33;99798.91;;;5.84;44.16
67397;BME280;57728;50.448;18.824;2022-12-18T09:57:45;99806.91;;;5.04;44.93
67397;BME280;57728;50.448;18.824;2022-12-18T09:59:58;99812.25;;;4.21;45.00
67397;BME280;57728;50.448;18.824;2022-12-18T10:02:20;99798.03;;;3.32;45.96
67397;BME280;57728;50.448;18.824;2022-12-18T10:04:32;99752.34;;;2.31;46.58
67397;BME280;57728;50.448;18.824;2022-12-18T10:06:55;99805.81;;;2.03;47.52
67397;BME280;57728;50.448;18.824;2022-12-18T10:09:24;99802.94;;;1.53;48.34
67397;BME280;57728;50.448;18.824;2022-12-18T10:14:09;99793.38;;;1.07;49.70
67397;BME280;57728;50.448;18.824;2022-12-18T10:27:12;99781.63;;;1.19;51.21
67397;BME280;57728;50.448;18.824;2022-12-18T10:29:16;99711.69;;;0.99;51.44
67397;BME280;57728;50.448;18.824;2022-12-18T10:31:23;99726.91;;;1.52;51.83
67397;BME280;57728;50.448;18.824;2022-12-18T10:33:29;99775.78;;;2.50;51.46
67397;BME280;57728;50.448;18.824;2022-12-18T10:35:35;99617.25;;;2.29;50.92
67397;BME280;57728;50.448;18.824;2022-12-18T10:40:15;99776.03;;;4.89;49.86
67397;BME280;57728;50.448;18.824;2022-12-18T10:42:19;99767.69;;;5.46;48.09
67397;BME280;57728;50.448;18.824;2022-12-18T10:44:22;99732.09;;;5.50;46.72
67397;BME280;57728;50.448;18.824;2022-12-18T10:46:26;99757.06;;;5.53;45.61
67397;BME280;57728;50.448;18.824;2022-12-18T10:48:30;99767.13;;;5.06;45.68
67397;BME280;57728;50.448;18.824;2022-12-18T10:50:36;99766.84;;;4.54;46.02
67397;BME280;57728;50.448;18.824;2022-12-18T10:52:38;99764.06;;;3.98;46.11
67397;BME280;57728;50.448;18.824;2022-12-18T10:54:54;99721.50;;;3.25;46.58
67397;BME280;57728;50.448;18.824;2022-12-18T10:57:30;99749.81;;;2.80;46.88
67397;BME280;57728;50.448;18.824;2022-12-18T10:59:53;99732.75;;;2.10;47.80
67397;BME280;57728;50.448;18.824;2022-12-18T11:01:58;99745.44;;;1.77;48.05
67397;BME280;57728;50.448;18.824;2022-12-18T11:04:08;99739.28;;;1.44;48.73
67397;BME280;57728;50.448;18.824;2022-12-18T11:06:16;99697.00;;;1.15;49.87
67397;BME280;57728;50.448;18.824;2022-12-18T11:08:21;99676.19;;;1.28;50.23
67397;BME280;57728;50.448;18.824;2022-12-18T11:10:33;99727.91;;;1.73;49.70
67397;BME280;57728;50.448;18.824;2022-12-18T11:12:39;99743.34;;;1.80;49.69
67397;BME280;57728;50.448;18.824;2022-12-18T11:14:54;99730.94;;;1.89;50.33
67397;BME280;57728;50.448;18.824;2022-12-18T11:16:59;99732.19;;;2.16;50.15
67397;BME280;57728;50.448;18.824;2022-12-18T11:21:27;99736.28;;;2.51;49.95
67397;BME280;57728;50.448;18.824;2022-12-18T11:23:29;99742.00;;;2.77;49.71
67397;BME280;57728;50.448;18.824;2022-12-18T11:25:32;99744.44;;;2.80;48.99
67397;BME280;57728;50.448;18.824;2022-12-18T11:27:34;99730.63;;;2.54;48.72
67397;BME280;57728;50.448;18.824;2022-12-18T11:29:39;99759.47;;;2.42;48.66
67397;BME280;57728;50.448;18.824;2022-12-18T11:31:40;99739.94;;;2.09;49.22
67397;BME280;57728;50.448;18.824;2022-12-18T11:36:21;99751.59;;;1.88;49.63
67397;BME280;57728;50.448;18.824;2022-12-18T11:38:40;99769.78;;;1.85;49.89
67397;BME280;57728;50.448;18.824;2022-12-18T11:43:26;99770.19;;;1.59;50.38
67397;BME280;57728;50.448;18.824;2022-12-18T11:45:33;99768.03;;;1.53;50.66
67397;BME280;57728;50.448;18.824;2022-12-18T11:47:56;99765.72;;;1.48;50.55